sensor_id;sensor_type;location;lat;lon;timestamp;noise_LAeq;noise_LA_min;noise_LA_max;noise_LA01;noise_LA95
71020;Laerm;58902;51.436;5.980;2023-07-28T00:00:10;43.51;32.86;56.82;;
71020;Laerm;58902;51.436;5.980;2023-07-28T00:00:20;40.85;33.50;53.88;;
71020;Laerm;58902;51.436;5.980;2023-07-28T00:00:30;40.25;34.28;53.24;;
71020;Laerm;58902;51.436;5.980;2023-07-28T00:00:42;40.02;32.86;53.22;;
71020;Laerm;58902;51.436;5.980;2023-07-28T00:00:52;39.40;32.96;54.04;;
71020;Laerm;58902;51.436;5.980;2023-07-28T00:01:02;39.71;33.17;53.69;;
71020;Laerm;58902;51.436;5.980;2023-07-28T00:01:13;41.30;32.69;54.29;;
71020;Laerm;58902;51.436;5.980;2023-07-28T00:01:23;40.12;33.31;53.58;;
71020;Laerm;58902;51.436;5.980;2023-07-28T00:01:33;40.16;33.11;54.71;;
71020;Laerm;58902;51.436;5.980;2023-07-28T00:01:44;41.68;32.97;56.45;;
71020;Laerm;58902;51.436;5.980;2023-07-28T00:01:54;41.46;33.44;55.27;;
71020;Laerm;58902;51.436;5.980;2023-07-28T00:02:04;40.67;33.95;53.41;;
71020;Laerm;58902;51.436;5.980;2023-07-28T00:02:15;40.13;33.28;56.60;;
71020;Laerm;58902;51.436;5.980;2023-07-28T00:02:25;41.43;32.35;53.86;;
71020;Laerm;58902;51.436;5.980;2023-07-28T00:02:35;40.93;34.13;54.23;;
71020;Laerm;58902;51.436;5.980;2023-07-28T00:02:46;41.04;34.35;55.38;;
71020;Laerm;58902;51.436;5.980;2023-07-28T00:02:56;41.05;33.64;54.70;;
71020;Laerm;58902;51.436;5.980;2023-07-28T00:03:06;41.24;34.08;55.18;;
71020;Laerm;58902;51.436;5.980;2023-07-28T00:03:17;41.26;34.38;54.20;;
71020;Laerm;58902;51.436;5.980;2023-07-28T00:03:27;41.04;34.26;54.33;;
71020;Laerm;58902;51.436;5.980;2023-07-28T00:03:37;40.99;34.12;54.13;;
71020;Laerm;58902;51.436;5.980;2023-07-28T00:03:48;41.20;33.82;54.66;;
71020;Laerm;58902;51.436;5.980;2023-07-28T00:03:58;39.40;33.79;53.00;;
71020;Laerm;58902;51.436;5.980;2023-07-28T00:04:08;40.82;34.24;54.28;;
71020;Laerm;58902;51.436;5.980;2023-07-28T00:04:20;41.06;34.10;55.50;;
71020;Laerm;58902;51.436;5.980;2023-07-28T00:04:31;39.70;33.34;52.21;;
71020;Laerm;58902;51.436;5.980;2023-07-28T00:04:41;39.96;32.31;53.44;;
71020;Laerm;58902;51.436;5.980;2023-07-28T00:04:51;40.11;32.92;54.19;;
71020;Laerm;58902;51.436;5.980;2023-07-28T00:05:02;39.52;33.11;53.08;;
71020;Laerm;58902;51.436;5.980;2023-07-28T00:05:12;40.65;32.80;55.30;;
71020;Laerm;58902;51.436;5.980;2023-07-28T00:05:22;39.68;34.37;54.49;;
71020;Laerm;58902;51.436;5.980;2023-07-28T00:05:33;39.14;33.98;51.93;;
71020;Laerm;58902;51.436;5.980;2023-07-28T00:05:43;39.87;32.85;50.98;;
71020;Laerm;58902;51.436;5.980;2023-07-28T00:05:53;39.52;32.42;53.59;;
71020;Laerm;58902;51.436;5.980;2023-07-28T00:06:04;38.76;32.66;51.50;;
71020;Laerm;58902;51.436;5.980;2023-07-28T00:06:14;39.03;32.67;54.02;;
71020;Laerm;58902;51.436;5.980;2023-07-28T00:06:24;39.67;32.78;52.91;;
71020;Laerm;58902;51.436;5.980;2023-07-28T00:06:35;38.66;33.35;52.08;;
71020;Laerm;58902;51.436;5.980;2023-07-28T00:06:45;38.70;33.34;49.25;;
71020;Laerm;58902;51.436;5.980;2023-07-28T00:06:55;38.71;33.03;50.29;;
71020;Laerm;58902;51.436;5.980;2023-07-28T00:07:06;38.73;32.79;49.85;;
71020;Laerm;58902;51.436;5.980;2023-07-28T00:07:17;38.37;32.57;50.19;;
71020;Laerm;58902;51.436;5.980;2023-07-28T00:07:28;40.12;34.18;52.63;;
71020;Laerm;58902;51.436;5.980;2023-07-28T00:07:38;39.02;34.74;48.92;;
71020;Laerm;58902;51.436;5.980;2023-07-28T00:07:48;39.80;33.75;53.02;;
71020;Laerm;58902;51.436;5.980;2023-07-28T00:07:59;39.45;35.33;52.18;;
71020;Laerm;58902;51.436;5.980;2023-07-28T00:08:09;39.24;35.36;50.80;;
71020;Laerm;58902;51.436;5.980;2023-07-28T00:08:19;38.93;34.78;50.25;;
71020;Laerm;58902;51.436;5.980;2023-07-28T00:08:30;40.17;35.13;51.13;;
71020;Laerm;58902;51.436;5.980;2023-07-28T00:08:40;39.24;35.08;50.96;;
71020;Laerm;58902;51.436;5.980;2023-07-28T00:08:51;39.03;34.28;53.11;;
71020;Laerm;58902;51.436;5.980;2023-07-28T00:09:01;39.54;34.68;52.23;;
71020;Laerm;58902;51.436;5.980;2023-07-28T00:09:12;39.66;35.02;54.66;;
71020;Laerm;58902;51.436;5.980;2023-07-28T00:09:22;39.26;35.11;51.14;;
71020;Laerm;58902;51.436;5.980;2023-07-28T00:09:35;39.10;35.02;48.85;;
71020;Laerm;58902;51.436;5.980;2023-07-28T00:09:46;38.81;34.66;51.18;;
71020;Laerm;58902;51.436;5.980;2023-07-28T00:09:56;38.84;34.80;51.39;;
71020;Laerm;58902;51.436;5.980;2023-07-28T00:10:06;42.05;35.43;60.49;;
71020;Laerm;58902;51.436;5.980;2023-07-28T00:10:17;38.57;34.89;48.87;;
71020;Laerm;58902;51.436;5.980;2023-07-28T00:10:27;38.75;34.54;51.52;;
71020;Laerm;58902;51.436;5.980;2023-07-28T00:10:41;38.98;34.69;53.62;;
71020;Laerm;58902;51.436;5.980;2023-07-28T00:10:52;39.48;34.32;56.45;;
71020;Laerm;58902;51.436;5.980;2023-07-28T00:11:02;38.25;34.25;52.17;;
71020;Laerm;58902;51.436;5.980;2023-07-28T00:11:13;39.00;34.77;52.20;;
71020;Laerm;58902;51.436;5.980;2023-07-28T00:11:24;38.31;33.85;48.19;;
71020;Laerm;58902;51.436;5.980;2023-07-28T00:11:34;37.89;33.98;52.59;;
71020;Laerm;58902;51.436;5.980;2023-07-28T00:11:45;38.34;33.66;51.66;;
71020;Laerm;58902;51.436;5.980;2023-07-28T00:11:58;38.05;33.85;51.55;;
71020;Laerm;58902;51.436;5.980;2023-07-28T00:12:09;38.44;33.56;54.77;;
71020;Laerm;58902;51.436;5.980;2023-07-28T00:12:19;38.80;33.38;54.96;;
71020;Laerm;58902;51.436;5.980;2023-07-28T00:12:30;39.65;34.18;55.49;;
71020;Laerm;58902;51.436;5.980;2023-07-28T00:12:40;37.96;33.99;48.37;;
71020;Laerm;58902;51.436;5.980;2023-07-28T00:12:51;39.00;34.55;50.58;;
71020;Laerm;58902;51.436;5.980;2023-07-28T00:13:01;38.75;34.39;50.70;;
71020;Laerm;58902;51.436;5.980;2023-07-28T00:13:12;39.36;34.70;52.86;;
71020;Laerm;58902;51.436;5.980;2023-07-28T00:13:22;39.35;34.46;51.79;;
71020;Laerm;58902;51.436;5.980;2023-07-28T00:13:33;39.82;34.42;53.43;;
71020;Laerm;58902;51.436;5.980;2023-07-28T00:13:43;39.71;36.35;51.89;;
71020;Laerm;58902;51.436;5.980;2023-07-28T00:13:53;39.90;36.23;52.89;;
71020;Laerm;58902;51.436;5.980;2023-07-28T00:14:04;38.61;34.67;51.67;;
71020;Laerm;58902;51.436;5.980;2023-07-28T00:14:14;39.70;35.47;53.60;;
71020;Laerm;58902;51.436;5.980;2023-07-28T00:14:25;39.22;35.99;51.11;;
71020;Laerm;58902;51.436;5.980;2023-07-28T00:14:35;40.53;35.54;55.47;;
71020;Laerm;58902;51.436;5.980;2023-07-28T00:14:45;40.88;36.99;54.07;;
71020;Laerm;58902;51.436;5.980;2023-07-28T00:14:56;39.80;36.29;50.59;;
71020;Laerm;58902;51.436;5.980;2023-07-28T00:15:06;40.49;35.26;54.74;;
71020;Laerm;58902;51.436;5.980;2023-07-28T00:15:17;39.52;35.50;53.82;;
71020;Laerm;58902;51.436;5.980;2023-07-28T00:15:27;40.13;35.29;54.79;;
71020;Laerm;58902;51.436;5.980;2023-07-28T00:15:37;39.46;35.57;53.21;;
71020;Laerm;58902;51.436;5.980;2023-07-28T00:15:47;39.71;35.12;53.75;;
71020;Laerm;58902;51.436;5.980;2023-07-28T00:15:58;38.97;35.37;48.79;;
71020;Laerm;58902;51.436;5.980;2023-07-28T00:16:09;40.20;35.22;55.78;;
71020;Laerm;58902;51.436;5.980;2023-07-28T00:16:20;39.94;35.66;55.79;;
71020;Laerm;58902;51.436;5.980;2023-07-28T00:16:30;39.77;35.53;54.84;;
71020;Laerm;58902;51.436;5.980;2023-07-28T00:16:40;39.34;35.19;52.27;;
71020;Laerm;58902;51.436;5.980;2023-07-28T00:16:51;40.11;36.32;56.36;;
71020;Laerm;58902;51.436;5.980;2023-07-28T00:17:01;40.12;36.52;54.56;;
71020;Laerm;58902;51.436;5.980;2023-07-28T00:17:12;40.03;35.35;54.53;;
71020;Laerm;58902;51.436;5.980;2023-07-28T00:17:22;39.39;34.58;54.07;;
71020;Laerm;58902;51.436;5.980;2023-07-28T00:17:32;39.47;34.53;52.71;;
71020;Laerm;58902;51.436;5.980;2023-07-28T00:17:43;37.93;34.47;50.05;;
71020;Laerm;58902;51.436;5.980;2023-07-28T00:17:54;39.27;34.33;54.95;;
71020;Laerm;58902;51.436;5.980;2023-07-28T00:18:04;39.07;33.83;53.73;;
71020;Laerm;58902;51.436;5.980;2023-07-28T00:18:15;39.34;34.02;53.54;;
71020;Laerm;58902;51.436;5.980;2023-07-28T00:18:25;37.70;33.61;50.48;;
71020;Laerm;58902;51.436;5.980;2023-07-28T00:18:35;38.51;33.84;53.44;;
71020;Laerm;58902;51.436;5.980;2023-07-28T00:18:46;38.47;34.51;53.29;;
71020;Laerm;58902;51.436;5.980;2023-07-28T00:18:56;39.15;34.08;55.70;;
71020;Laerm;58902;51.436;5.980;2023-07-28T00:19:07;39.49;34.26;52.59;;
71020;Laerm;58902;51.436;5.980;2023-07-28T00:19:17;38.94;33.93;53.84;;
71020;Laerm;58902;51.436;5.980;2023-07-28T00:19:29;39.05;33.65;53.28;;
71020;Laerm;58902;51.436;5.980;2023-07-28T00:19:39;39.17;34.47;55.20;;
71020;Laerm;58902;51.436;5.980;2023-07-28T00:19:49;38.21;33.74;50.92;;
71020;Laerm;58902;51.436;5.980;2023-07-28T00:20:00;39.73;33.77;54.87;;
71020;Laerm;58902;51.436;5.980;2023-07-28T00:20:10;39.46;33.95;53.40;;
71020;Laerm;58902;51.436;5.980;2023-07-28T00:20:21;38.68;34.23;52.83;;
71020;Laerm;58902;51.436;5.980;2023-07-28T00:20:31;38.75;34.01;53.59;;
71020;Laerm;58902;51.436;5.980;2023-07-28T00:20:41;39.67;34.03;56.36;;
71020;Laerm;58902;51.436;5.980;2023-07-28T00:20:52;39.27;33.97;53.95;;
71020;Laerm;58902;51.436;5.980;2023-07-28T00:21:13;38.90;34.25;52.96;;
71020;Laerm;58902;51.436;5.980;2023-07-28T00:21:23;39.69;33.99;53.21;;
71020;Laerm;58902;51.436;5.980;2023-07-28T00:21:34;38.92;33.92;53.69;;
71020;Laerm;58902;51.436;5.980;2023-07-28T00:21:44;39.57;33.74;54.89;;
71020;Laerm;58902;51.436;5.980;2023-07-28T00:21:54;39.25;33.75;55.05;;
71020;Laerm;58902;51.436;5.980;2023-07-28T00:22:06;40.33;35.18;56.26;;
71020;Laerm;58902;51.436;5.980;2023-07-28T00:22:16;39.03;35.44;50.10;;
71020;Laerm;58902;51.436;5.980;2023-07-28T00:22:27;38.86;34.72;52.74;;
71020;Laerm;58902;51.436;5.980;2023-07-28T00:22:37;39.88;35.00;54.26;;
71020;Laerm;58902;51.436;5.980;2023-07-28T00:22:47;40.37;34.41;55.11;;
71020;Laerm;58902;51.436;5.980;2023-07-28T00:22:58;39.87;35.28;53.17;;
71020;Laerm;58902;51.436;5.980;2023-07-28T00:23:08;40.58;34.93;55.46;;
71020;Laerm;58902;51.436;5.980;2023-07-28T00:23:19;41.27;35.19;55.68;;
71020;Laerm;58902;51.436;5.980;2023-07-28T00:23:29;40.46;35.49;54.79;;
71020;Laerm;58902;51.436;5.980;2023-07-28T00:23:40;42.29;35.22;58.38;;
71020;Laerm;58902;51.436;5.980;2023-07-28T00:23:50;41.50;35.39;53.89;;
71020;Laerm;58902;51.436;5.980;2023-07-28T00:24:00;41.44;35.25;56.88;;
71020;Laerm;58902;51.436;5.980;2023-07-28T00:24:11;42.28;34.86;57.80;;
71020;Laerm;58902;51.436;5.980;2023-07-28T00:24:21;41.22;35.30;53.96;;
71020;Laerm;58902;51.436;5.980;2023-07-28T00:24:31;40.83;35.64;52.98;;
71020;Laerm;58902;51.436;5.980;2023-07-28T00:24:41;40.84;35.53;52.95;;
71020;Laerm;58902;51.436;5.980;2023-07-28T00:24:52;41.25;35.82;54.65;;
71020;Laerm;58902;51.436;5.980;2023-07-28T00:25:02;41.96;37.30;53.53;;
71020;Laerm;58902;51.436;5.980;2023-07-28T00:25:12;42.23;36.39;57.58;;
71020;Laerm;58902;51.436;5.980;2023-07-28T00:25:23;41.42;35.63;56.45;;
71020;Laerm;58902;51.436;5.980;2023-07-28T00:25:33;41.69;35.80;55.55;;
71020;Laerm;58902;51.436;5.980;2023-07-28T00:25:43;41.87;35.65;57.16;;
71020;Laerm;58902;51.436;5.980;2023-07-28T00:25:54;41.87;36.17;55.02;;
71020;Laerm;58902;51.436;5.980;2023-07-28T00:26:04;40.85;35.44;53.31;;
71020;Laerm;58902;51.436;5.980;2023-07-28T00:26:14;40.22;34.72;52.81;;
71020;Laerm;58902;51.436;5.980;2023-07-28T00:26:25;40.38;34.54;53.71;;
71020;Laerm;58902;51.436;5.980;2023-07-28T00:26:35;40.75;33.96;57.83;;
71020;Laerm;58902;51.436;5.980;2023-07-28T00:26:45;40.02;33.74;54.29;;
71020;Laerm;58902;51.436;5.980;2023-07-28T00:26:56;40.57;33.39;56.79;;
71020;Laerm;58902;51.436;5.980;2023-07-28T00:27:06;40.77;33.67;55.04;;
71020;Laerm;58902;51.436;5.980;2023-07-28T00:27:17;39.87;34.44;55.66;;
71020;Laerm;58902;51.436;5.980;2023-07-28T00:27:28;40.78;34.47;55.12;;
71020;Laerm;58902;51.436;5.980;2023-07-28T00:27:38;40.33;34.62;54.82;;
71020;Laerm;58902;51.436;5.980;2023-07-28T00:27:49;39.98;34.27;53.49;;
71020;Laerm;58902;51.436;5.980;2023-07-28T00:27:59;41.44;34.52;55.52;;
71020;Laerm;58902;51.436;5.980;2023-07-28T00:28:09;43.98;35.14;52.53;;
71020;Laerm;58902;51.436;5.980;2023-07-28T00:28:20;42.76;35.64;55.93;;
71020;Laerm;58902;51.436;5.980;2023-07-28T00:28:30;39.32;36.23;47.98;;
71020;Laerm;58902;51.436;5.980;2023-07-28T00:28:41;41.59;36.44;55.48;;
71020;Laerm;58902;51.436;5.980;2023-07-28T00:28:51;40.67;36.45;53.39;;
71020;Laerm;58902;51.436;5.980;2023-07-28T00:29:01;66.36;37.75;76.09;;
71020;Laerm;58902;51.436;5.980;2023-07-28T00:29:15;72.46;69.31;75.47;;
71020;Laerm;58902;51.436;5.980;2023-07-28T00:29:25;71.92;66.97;76.11;;
71020;Laerm;58902;51.436;5.980;2023-07-28T00:29:35;64.83;41.89;72.78;;
71020;Laerm;58902;51.436;5.980;2023-07-28T00:29:46;42.34;36.53;56.11;;
71020;Laerm;58902;51.436;5.980;2023-07-28T00:29:56;39.87;35.60;54.28;;
71020;Laerm;58902;51.436;5.980;2023-07-28T00:30:06;40.05;34.95;55.37;;
71020;Laerm;58902;51.436;5.980;2023-07-28T00:30:17;39.88;35.29;54.66;;
71020;Laerm;58902;51.436;5.980;2023-07-28T00:30:27;39.06;34.77;52.48;;
71020;Laerm;58902;51.436;5.980;2023-07-28T00:30:37;39.27;34.70;55.21;;
71020;Laerm;58902;51.436;5.980;2023-07-28T00:30:50;40.41;34.98;55.06;;
71020;Laerm;58902;51.436;5.980;2023-07-28T00:31:01;38.82;34.17;53.87;;
71020;Laerm;58902;51.436;5.980;2023-07-28T00:31:11;41.39;34.54;55.16;;
71020;Laerm;58902;51.436;5.980;2023-07-28T00:31:21;39.18;34.73;53.52;;
71020;Laerm;58902;51.436;5.980;2023-07-28T00:31:32;38.49;34.48;51.76;;
71020;Laerm;58902;51.436;5.980;2023-07-28T00:31:42;38.61;34.54;53.01;;
71020;Laerm;58902;51.436;5.980;2023-07-28T00:31:52;40.02;34.50;53.39;;
71020;Laerm;58902;51.436;5.980;2023-07-28T00:32:03;39.76;34.56;55.88;;
71020;Laerm;58902;51.436;5.980;2023-07-28T00:32:13;39.12;33.51;54.67;;
71020;Laerm;58902;51.436;5.980;2023-07-28T00:32:23;37.98;33.58;51.01;;
71020;Laerm;58902;51.436;5.980;2023-07-28T00:32:34;38.97;33.55;53.30;;
71020;Laerm;58902;51.436;5.980;2023-07-28T00:32:44;38.84;33.66;54.65;;
71020;Laerm;58902;51.436;5.980;2023-07-28T00:32:54;38.91;33.33;53.81;;
71020;Laerm;58902;51.436;5.980;2023-07-28T00:33:05;40.05;33.43;57.96;;
71020;Laerm;58902;51.436;5.980;2023-07-28T00:33:15;39.07;33.42;53.76;;
71020;Laerm;58902;51.436;5.980;2023-07-28T00:33:26;38.06;33.33;50.91;;
71020;Laerm;58902;51.436;5.980;2023-07-28T00:33:37;39.47;33.57;56.83;;
71020;Laerm;58902;51.436;5.980;2023-07-28T00:33:47;38.18;33.34;51.21;;
71020;Laerm;58902;51.436;5.980;2023-07-28T00:33:58;37.84;33.98;50.59;;
71020;Laerm;58902;51.436;5.980;2023-07-28T00:34:08;38.03;33.77;50.93;;
71020;Laerm;58902;51.436;5.980;2023-07-28T00:34:18;39.55;33.69;56.22;;
71020;Laerm;58902;51.436;5.980;2023-07-28T00:34:29;38.70;34.11;54.30;;
71020;Laerm;58902;51.436;5.980;2023-07-28T00:34:39;39.21;34.15;52.60;;
71020;Laerm;58902;51.436;5.980;2023-07-28T00:34:49;38.69;34.19;54.82;;
71020;Laerm;58902;51.436;5.980;2023-07-28T00:35:00;40.65;34.83;56.70;;
71020;Laerm;58902;51.436;5.980;2023-07-28T00:35:10;38.30;35.03;51.02;;
71020;Laerm;58902;51.436;5.980;2023-07-28T00:35:20;40.08;34.46;53.62;;
71020;Laerm;58902;51.436;5.980;2023-07-28T00:35:31;39.08;34.16;53.72;;
71020;Laerm;58902;51.436;5.980;2023-07-28T00:35:41;38.84;33.96;53.62;;
71020;Laerm;58902;51.436;5.980;2023-07-28T00:35:52;39.93;34.45;57.51;;
71020;Laerm;58902;51.436;5.980;2023-07-28T00:36:02;39.20;34.82;52.97;;
71020;Laerm;58902;51.436;5.980;2023-07-28T00:36:13;39.19;34.87;53.41;;
71020;Laerm;58902;51.436;5.980;2023-07-28T00:36:23;40.21;35.31;55.40;;
71020;Laerm;58902;51.436;5.980;2023-07-28T00:36:33;40.29;36.33;55.18;;
71020;Laerm;58902;51.436;5.980;2023-07-28T00:36:44;40.26;35.95;55.02;;
71020;Laerm;58902;51.436;5.980;2023-07-28T00:36:54;40.02;34.93;55.74;;
71020;Laerm;58902;51.436;5.980;2023-07-28T00:37:04;39.51;34.18;54.29;;
71020;Laerm;58902;51.436;5.980;2023-07-28T00:37:15;39.32;35.04;52.96;;
71020;Laerm;58902;51.436;5.980;2023-07-28T00:37:25;40.02;34.88;56.12;;
71020;Laerm;58902;51.436;5.980;2023-07-28T00:37:35;40.05;35.40;56.69;;
71020;Laerm;58902;51.436;5.980;2023-07-28T00:37:46;39.56;35.06;54.22;;
71020;Laerm;58902;51.436;5.980;2023-07-28T00:37:56;40.16;34.66;57.30;;
71020;Laerm;58902;51.436;5.980;2023-07-28T00:38:06;39.12;35.48;53.75;;
71020;Laerm;58902;51.436;5.980;2023-07-28T00:38:17;40.27;34.87;55.41;;
71020;Laerm;58902;51.436;5.980;2023-07-28T00:38:27;39.72;35.02;54.24;;
71020;Laerm;58902;51.436;5.980;2023-07-28T00:38:37;38.86;35.02;52.82;;
71020;Laerm;58902;51.436;5.980;2023-07-28T00:38:48;41.39;35.03;58.53;;
71020;Laerm;58902;51.436;5.980;2023-07-28T00:38:58;43.97;39.90;58.59;;
71020;Laerm;58902;51.436;5.980;2023-07-28T00:39:08;41.54;37.28;58.33;;
71020;Laerm;58902;51.436;5.980;2023-07-28T00:39:19;39.85;36.49;53.49;;
71020;Laerm;58902;51.436;5.980;2023-07-28T00:39:29;39.71;36.54;57.37;;
71020;Laerm;58902;51.436;5.980;2023-07-28T00:39:39;65.48;37.96;74.07;;
71020;Laerm;58902;51.436;5.980;2023-07-28T00:39:50;68.82;65.83;76.84;;
71020;Laerm;58902;51.436;5.980;2023-07-28T00:40:00;72.29;66.53;80.57;;
71020;Laerm;58902;51.436;5.980;2023-07-28T00:40:10;64.57;45.05;72.96;;
71020;Laerm;58902;51.436;5.980;2023-07-28T00:40:22;44.22;38.15;55.50;;
71020;Laerm;58902;51.436;5.980;2023-07-28T00:40:32;41.16;37.60;52.37;;
71020;Laerm;58902;51.436;5.980;2023-07-28T00:40:43;40.32;34.64;56.10;;
71020;Laerm;58902;51.436;5.980;2023-07-28T00:40:53;40.76;34.16;57.37;;
71020;Laerm;58902;51.436;5.980;2023-07-28T00:41:03;40.78;34.23;59.27;;
71020;Laerm;58902;51.436;5.980;2023-07-28T00:41:14;37.44;33.60;53.48;;
71020;Laerm;58902;51.436;5.980;2023-07-28T00:41:24;39.01;34.15;55.59;;
71020;Laerm;58902;51.436;5.980;2023-07-28T00:41:34;38.05;33.88;53.18;;
71020;Laerm;58902;51.436;5.980;2023-07-28T00:41:45;39.69;33.44;55.91;;
71020;Laerm;58902;51.436;5.980;2023-07-28T00:41:55;38.88;33.59;57.06;;
71020;Laerm;58902;51.436;5.980;2023-07-28T00:42:06;38.08;33.24;54.84;;
71020;Laerm;58902;51.436;5.980;2023-07-28T00:42:16;39.81;32.79;57.72;;
71020;Laerm;58902;51.436;5.980;2023-07-28T00:42:26;36.95;33.76;53.45;;
71020;Laerm;58902;51.436;5.980;2023-07-28T00:42:37;38.21;33.46;55.57;;
71020;Laerm;58902;51.436;5.980;2023-07-28T00:42:47;39.56;33.17;55.98;;
71020;Laerm;58902;51.436;5.980;2023-07-28T00:42:57;37.58;33.11;54.16;;
71020;Laerm;58902;51.436;5.980;2023-07-28T00:43:08;36.45;32.77;49.66;;
71020;Laerm;58902;51.436;5.980;2023-07-28T00:43:18;38.02;32.96;55.11;;
71020;Laerm;58902;51.436;5.980;2023-07-28T00:43:29;37.06;33.36;53.87;;
71020;Laerm;58902;51.436;5.980;2023-07-28T00:43:39;37.64;33.41;54.84;;
71020;Laerm;58902;51.436;5.980;2023-07-28T00:43:50;40.09;33.53;58.85;;
71020;Laerm;58902;51.436;5.980;2023-07-28T00:44:00;41.38;35.46;47.52;;
71020;Laerm;58902;51.436;5.980;2023-07-28T00:44:10;38.79;33.83;56.26;;
71020;Laerm;58902;51.436;5.980;2023-07-28T00:44:21;37.59;33.47;57.37;;
71020;Laerm;58902;51.436;5.980;2023-07-28T00:44:31;38.06;33.19;55.62;;
71020;Laerm;58902;51.436;5.980;2023-07-28T00:44:41;38.98;32.99;56.51;;
71020;Laerm;58902;51.436;5.980;2023-07-28T00:44:51;36.28;33.00;51.01;;
71020;Laerm;58902;51.436;5.980;2023-07-28T00:45:02;37.75;33.18;57.42;;
71020;Laerm;58902;51.436;5.980;2023-07-28T00:45:12;38.57;33.47;56.18;;
71020;Laerm;58902;51.436;5.980;2023-07-28T00:45:23;35.83;33.21;45.72;;
71020;Laerm;58902;51.436;5.980;2023-07-28T00:45:33;36.32;32.66;47.99;;
71020;Laerm;58902;51.436;5.980;2023-07-28T00:45:44;35.96;33.17;47.15;;
71020;Laerm;58902;51.436;5.980;2023-07-28T00:45:54;36.58;33.21;47.64;;
71020;Laerm;58902;51.436;5.980;2023-07-28T00:46:04;37.97;33.62;56.31;;
71020;Laerm;58902;51.436;5.980;2023-07-28T00:46:15;37.67;33.58;53.22;;
71020;Laerm;58902;51.436;5.980;2023-07-28T00:46:26;37.83;33.24;55.31;;
71020;Laerm;58902;51.436;5.980;2023-07-28T00:46:36;37.41;34.18;55.08;;
71020;Laerm;58902;51.436;5.980;2023-07-28T00:46:46;38.24;33.78;55.72;;
71020;Laerm;58902;51.436;5.980;2023-07-28T00:46:57;37.49;34.30;46.72;;
71020;Laerm;58902;51.436;5.980;2023-07-28T00:47:07;36.95;34.11;48.96;;
71020;Laerm;58902;51.436;5.980;2023-07-28T00:47:18;37.19;33.83;52.04;;
71020;Laerm;58902;51.436;5.980;2023-07-28T00:47:28;38.34;33.70;57.16;;
71020;Laerm;58902;51.436;5.980;2023-07-28T00:47:39;37.63;34.00;49.55;;
71020;Laerm;58902;51.436;5.980;2023-07-28T00:47:49;39.03;34.23;57.81;;
71020;Laerm;58902;51.436;5.980;2023-07-28T00:48:00;37.38;34.28;50.08;;
71020;Laerm;58902;51.436;5.980;2023-07-28T00:48:11;37.10;34.44;45.04;;
71020;Laerm;58902;51.436;5.980;2023-07-28T00:48:22;38.35;34.63;53.48;;
71020;Laerm;58902;51.436;5.980;2023-07-28T00:48:33;38.59;34.04;55.63;;
71020;Laerm;58902;51.436;5.980;2023-07-28T00:48:43;37.95;34.38;48.66;;
71020;Laerm;58902;51.436;5.980;2023-07-28T00:48:54;37.43;33.53;55.89;;
71020;Laerm;58902;51.436;5.980;2023-07-28T00:49:05;36.20;33.56;45.82;;
71020;Laerm;58902;51.436;5.980;2023-07-28T00:49:15;36.83;33.44;48.73;;
71020;Laerm;58902;51.436;5.980;2023-07-28T00:49:25;36.39;33.21;48.41;;
71020;Laerm;58902;51.436;5.980;2023-07-28T00:49:36;36.70;33.48;51.91;;
71020;Laerm;58902;51.436;5.980;2023-07-28T00:49:47;36.97;33.40;49.14;;
71020;Laerm;58902;51.436;5.980;2023-07-28T00:49:57;36.65;33.58;46.76;;
71020;Laerm;58902;51.436;5.980;2023-07-28T00:50:08;36.70;33.53;47.32;;
71020;Laerm;58902;51.436;5.980;2023-07-28T00:50:19;38.12;33.98;56.17;;
71020;Laerm;58902;51.436;5.980;2023-07-28T00:50:30;36.45;33.97;46.96;;
71020;Laerm;58902;51.436;5.980;2023-07-28T00:50:47;36.75;33.56;51.47;;
71020;Laerm;58902;51.436;5.980;2023-07-28T00:50:57;36.44;33.44;47.68;;
71020;Laerm;58902;51.436;5.980;2023-07-28T00:51:08;36.22;33.70;47.78;;
71020;Laerm;58902;51.436;5.980;2023-07-28T00:51:20;36.43;33.75;47.52;;
71020;Laerm;58902;51.436;5.980;2023-07-28T00:51:31;36.47;32.95;48.92;;
71020;Laerm;58902;51.436;5.980;2023-07-28T00:51:41;36.45;33.19;46.69;;
71020;Laerm;58902;51.436;5.980;2023-07-28T00:51:52;36.35;33.34;47.49;;
71020;Laerm;58902;51.436;5.980;2023-07-28T00:52:03;36.12;33.24;45.56;;
71020;Laerm;58902;51.436;5.980;2023-07-28T00:52:13;36.29;32.99;46.78;;
71020;Laerm;58902;51.436;5.980;2023-07-28T00:52:24;36.63;33.83;47.89;;
71020;Laerm;58902;51.436;5.980;2023-07-28T00:52:34;37.15;33.34;48.35;;
71020;Laerm;58902;51.436;5.980;2023-07-28T00:52:44;37.39;34.39;47.48;;
71020;Laerm;58902;51.436;5.980;2023-07-28T00:52:56;38.44;35.30;49.33;;
71020;Laerm;58902;51.436;5.980;2023-07-28T00:53:06;38.26;36.31;48.22;;
71020;Laerm;58902;51.436;5.980;2023-07-28T00:53:17;38.04;35.82;46.77;;
71020;Laerm;58902;51.436;5.980;2023-07-28T00:53:27;37.28;33.95;51.22;;
71020;Laerm;58902;51.436;5.980;2023-07-28T00:53:39;36.92;33.28;48.53;;
71020;Laerm;58902;51.436;5.980;2023-07-28T00:53:49;36.33;33.51;47.32;;
71020;Laerm;58902;51.436;5.980;2023-07-28T00:54:00;36.90;33.13;48.17;;
71020;Laerm;58902;51.436;5.980;2023-07-28T00:54:12;36.30;33.42;47.74;;
71020;Laerm;58902;51.436;5.980;2023-07-28T00:54:22;36.13;33.18;46.99;;
71020;Laerm;58902;51.436;5.980;2023-07-28T00:54:33;36.45;32.66;48.19;;
71020;Laerm;58902;51.436;5.980;2023-07-28T00:54:43;36.24;33.03;46.17;;
71020;Laerm;58902;51.436;5.980;2023-07-28T00:54:54;36.04;33.19;48.09;;
71020;Laerm;58902;51.436;5.980;2023-07-28T00:55:05;35.97;33.24;45.90;;
71020;Laerm;58902;51.436;5.980;2023-07-28T00:55:16;36.58;33.35;47.86;;
71020;Laerm;58902;51.436;5.980;2023-07-28T00:55:26;36.10;33.02;47.23;;
71020;Laerm;58902;51.436;5.980;2023-07-28T00:55:37;36.41;33.04;47.67;;
71020;Laerm;58902;51.436;5.980;2023-07-28T00:55:47;36.45;33.49;47.21;;
71020;Laerm;58902;51.436;5.980;2023-07-28T00:55:58;36.74;32.91;46.81;;
71020;Laerm;58902;51.436;5.980;2023-07-28T00:56:08;36.34;32.84;47.06;;
71020;Laerm;58902;51.436;5.980;2023-07-28T00:56:20;35.56;31.75;48.49;;
71020;Laerm;58902;51.436;5.980;2023-07-28T00:56:31;35.07;31.41;46.20;;
71020;Laerm;58902;51.436;5.980;2023-07-28T00:56:42;34.23;30.98;44.99;;
71020;Laerm;58902;51.436;5.980;2023-07-28T00:56:52;34.70;31.81;46.38;;
71020;Laerm;58902;51.436;5.980;2023-07-28T00:57:02;35.78;31.80;47.79;;
71020;Laerm;58902;51.436;5.980;2023-07-28T00:57:13;35.25;31.31;48.89;;
71020;Laerm;58902;51.436;5.980;2023-07-28T00:57:23;35.07;31.32;49.18;;
71020;Laerm;58902;51.436;5.980;2023-07-28T00:57:33;34.93;31.82;47.78;;
71020;Laerm;58902;51.436;5.980;2023-07-28T00:57:44;34.97;31.08;49.40;;
71020;Laerm;58902;51.436;5.980;2023-07-28T00:57:54;35.45;31.97;46.56;;
71020;Laerm;58902;51.436;5.980;2023-07-28T00:58:05;35.36;32.46;47.27;;
71020;Laerm;58902;51.436;5.980;2023-07-28T00:58:15;35.22;31.76;45.45;;
71020;Laerm;58902;51.436;5.980;2023-07-28T00:58:25;34.88;32.12;45.47;;
71020;Laerm;58902;51.436;5.980;2023-07-28T00:58:36;35.96;32.85;46.71;;
71020;Laerm;58902;51.436;5.980;2023-07-28T00:58:46;36.32;33.70;49.71;;
71020;Laerm;58902;51.436;5.980;2023-07-28T00:58:57;37.09;32.76;51.26;;
71020;Laerm;58902;51.436;5.980;2023-07-28T00:59:08;34.74;32.09;46.00;;